Meteo Giornale » Osservazioni meteo Egitto » Cairo

ore: 06:00 - Osservazioni Meteo Cairo
Lat. 30° 8' N Lon. 31° 24' E Alt. 64 metri s.l.m.

sereno Africa/Cairo

10 °C

Sereno

Temp. 24 Ore

10 °C

23 °C

Nord

5.5 Km/h

Dew point 7 °C

Umidità 81 %

Visibilità  10 Km

Il sole sorge alle ore 06:13

Il sole tramonta alle ore 17:57

Data e Ora Cielo e Fenomeni T °C DP °C Um. % Pres. hPa Vis. km Vento km/h
Oggi h: 06:00 sereno Sereno 10 7 81 1023 10 N 5.5
Oggi h: 05:30 sereno Sereno 11 8 81 1023 10 NE 13
Oggi h: 05:00 sereno Sereno 11 8 81 1023 10 NE 13
Oggi h: 04:30 sereno Sereno 11 7 76 1022 10 E/NE 13
Oggi h: 04:00 sereno Sereno 11 7 76 1022 10 E/NE 13
Oggi h: 03:30 sereno Sereno 11 7 76 1023 10 E/NE 9.3
Oggi h: 03:00 sereno Sereno 11 7 76 1023 10 E/NE 9.3
Oggi h: 02:30 sereno Sereno 12 7 71 1023 10 N/NE 7.4
Oggi h: 02:00 sereno Sereno 12 8 76 1023 10 N/NE 7.4
Oggi h: 01:30 sereno Sereno 12 8 76 1023 10 N/NE 9.3
Oggi h: 01:00 sereno Sereno 13 8 71 1023 10 NE 13
Oggi h: 00:30 sereno Sereno 13 8 71 1024 10 E/NE 16.7
Oggi h: 00:00 sereno Sereno 14 8 67 1024 10 E/NE 22.2
Ieri h: 23:00 sereno Sereno 17 8 55 1024 10 NE 24
Ieri h: 22:30 sereno Sereno 15 8 62 1024 10 NE 18.5
Ieri h: 22:00 sereno Sereno 15 8 62 1024 10 NE 22.2
Ieri h: 21:00 sereno Sereno 17 7 51 1024 10 N/NE 13
Ieri h: 20:30 sereno Sereno 17 6 48 1024 10 N/NE 11.1
Ieri h: 20:00 sereno Sereno 18 7 48 1024 10 N 16.7
Ieri h: 19:30 sereno Sereno 18 7 48 1023 10 N 18.5
Ieri h: 19:00 sereno Sereno 18 7 48 1023 10 N 18.5
Ieri h: 18:00 sereno Sereno 19 6 42 1023 10 N 18.5
Ieri h: 17:30 sereno Sereno 20 5 37 1023 10 N 18.5
Ieri h: 17:00 sereno Sereno 20 6 39 1022 10 N/NO 20.3
Ieri h: 16:30 sereno Sereno 21 6 37 1022 10 N/NO 18.5
Ieri h: 16:00 sereno Sereno 21 5 35 1022 10 N/NO 16.7
Ieri h: 15:30 sereno Sereno 21 5 35 1022 10 N/NO 11.1
Ieri h: 15:00 sereno Sereno 22 5 32 1022 10 N 7.4
Ieri h: 14:00 sereno Sereno 23 5 31 1023 10 N 7.4
Ieri h: 13:30 poco_nuvoloso Poco Nuvoloso 22 5 32 1023 10 N/NO 9.3
Ieri h: 13:00 poco_nuvoloso Poco Nuvoloso 20 5 37 1023 10 N/NO 7.4
Ieri h: 12:30 poco_nuvoloso Poco Nuvoloso 20 5 37 1024 10 N/NO 7.4
Ieri h: 12:00 poco_nuvoloso Poco Nuvoloso 20 6 39 1024 10 N/NO 7.4
Ieri h: 11:30 poco_nuvoloso Poco Nuvoloso 18 5 42 1025 10 N 7.4
Ieri h: 11:00 poco_nuvoloso Poco Nuvoloso 17 8 55 1025 10 N 5.5
Ieri h: 10:30 poco_nuvoloso Poco Nuvoloso 16 8 58 1025 6 N/NE 7.4
Ieri h: 10:00 poco_nuvoloso Poco Nuvoloso 16 9 63 1025 6 NE 7.4
Ieri h: 09:30 poco_nuvoloso Poco Nuvoloso 16 10 67 1025 6 N/NE 7.4
Ieri h: 09:00 poco_nuvoloso Poco Nuvoloso 16 11 72 1025 6 NE 9.3
Ieri h: 08:30 poco_nuvoloso Poco Nuvoloso 15 11 76 1025 6 NE 9.3
Ieri h: 08:00 poco_nuvoloso Poco Nuvoloso 14 11 82 1024 6 N 3.7
Ieri h: 07:00 foschia Foschia 12 10 87 1024 4 N 0
Ieri h: 06:00 foschia Foschia 10 9 93 1024 4 N 0